Time;durP1;ratioP1;P1;durP2;ratioP2;P2;SDS_P1;SDS_P2;PMS_P1;PMS_P2;Temp;Humidity;BMP_temperature;BMP_pressure;BME280_temperature;BME280_humidity;BME280_pressure;Samples;Min_cycle;Max_cycle;Signal;HPM_P1;HPM_P2
2021/12/30 00:02:03;;;;;;;19.75;10.65;;;;;;;13.56;75.19;99763.59;5078977;28;20048;-82
2021/12/30 00:04:32;;;;;;;18.60;9.65;;;;;;;13.53;75.57;99764.31;5077397;28;20052;-82
2021/12/30 00:07:02;;;;;;;24.25;10.45;;;;;;;13.55;75.01;99762.00;5080074;28;20045;-83
2021/12/30 00:09:29;;;;;;;18.95;10.35;;;;;;;13.50;74.99;99770.59;5079975;28;20044;-83
2021/12/30 00:11:57;;;;;;;22.35;10.38;;;;;;;13.43;75.17;99776.78;5079426;28;20425;-83
2021/12/30 00:14:25;;;;;;;21.52;10.85;;;;;;;13.42;75.19;99782.72;5079642;28;20051;-84
2021/12/30 00:16:53;;;;;;;23.55;12.80;;;;;;;13.37;75.15;99779.00;5079703;28;20052;-83
2021/12/30 00:19:20;;;;;;;21.40;10.73;;;;;;;13.36;74.78;99788.56;5078821;28;20056;-83
2021/12/30 00:21:49;;;;;;;17.00;9.80;;;;;;;13.36;74.36;99798.97;5078159;28;20061;-83
2021/12/30 00:24:17;;;;;;;18.43;9.90;;;;;;;13.44;74.11;99802.78;5078729;28;20508;-84
2021/12/30 00:26:44;;;;;;;20.30;10.80;;;;;;;13.38;74.08;99822.63;5077729;28;20478;-83
2021/12/30 00:29:11;;;;;;;19.10;11.18;;;;;;;13.32;74.79;99818.41;5076720;28;20056;-84
2021/12/30 00:31:39;;;;;;;18.65;9.65;;;;;;;13.36;74.65;99798.97;5077497;28;20040;-83
2021/12/30 00:34:06;;;;;;;19.35;10.32;;;;;;;13.29;74.68;99821.09;5077870;28;20486;-84
2021/12/30 00:36:34;;;;;;;23.55;11.23;;;;;;;13.29;75.13;99816.31;5076932;28;20478;-84
2021/12/30 00:39:03;;;;;;;16.10;8.75;;;;;;;13.33;74.17;99824.81;5077370;28;20437;-84
2021/12/30 00:41:30;;;;;;;17.30;8.55;;;;;;;13.35;74.10;99820.50;5077486;28;20044;-84
2021/12/30 00:43:58;;;;;;;17.00;8.30;;;;;;;13.35;73.30;99831.69;5078331;28;20378;-83
2021/12/30 00:46:25;;;;;;;18.00;8.15;;;;;;;13.27;74.05;99829.81;5077755;28;20053;-83
2021/12/30 00:48:55;;;;;;;20.00;7.47;;;;;;;13.19;74.10;99836.31;5077743;28;20040;-83
2021/12/30 00:51:22;;;;;;;15.77;6.95;;;;;;;13.19;73.71;99827.94;5077956;28;20063;-83
2021/12/30 00:53:50;;;;;;;17.98;7.07;;;;;;;13.11;74.29;99831.66;5077407;28;20057;-83
2021/12/30 00:56:22;;;;;;;21.77;7.55;;;;;;;13.11;74.21;99837.25;5077510;28;20428;-84
2021/12/30 00:58:52;;;;;;;17.38;6.55;;;;;;;13.13;74.43;99851.69;5078100;28;20049;-83
2021/12/30 01:01:21;;;;;;;17.65;7.03;;;;;;;13.17;73.83;99853.44;5077679;28;20063;-83
2021/12/30 01:03:49;;;;;;;;;;;;;;;13.07;73.90;99855.88;5078941;28;20397;-84
2021/12/30 01:06:19;;;;;;;14.30;6.60;;;;;;;13.18;73.75;99851.47;5078177;28;19927;-83
2021/12/30 01:08:46;;;;;;;15.75;6.40;;;;;;;13.22;73.26;99848.78;5077276;28;20060;-83
2021/12/30 01:11:14;;;;;;;14.00;5.47;;;;;;;13.20;73.40;99851.94;5077532;28;20049;-83
2021/12/30 01:13:45;;;;;;;14.77;6.20;;;;;;;13.00;73.85;99860.06;5076872;28;20062;-83
2021/12/30 01:16:18;;;;;;;17.25;6.10;;;;;;;12.97;74.36;99860.72;5077572;28;20060;-83
2021/12/30 01:19:00;;;;;;;19.13;5.53;;;;;;;13.06;73.73;99859.81;5078200;28;20033;-84
2021/12/30 01:21:31;;;;;;;16.40;5.45;;;;;;;13.03;74.15;99872.53;5076006;28;20063;-84
2021/12/30 01:24:02;;;;;;;16.65;4.95;;;;;;;12.99;73.59;99869.59;5076542;28;20059;-85
2021/12/30 01:26:29;;;;;;;16.33;5.75;;;;;;;13.04;73.95;99876.13;5076872;28;20067;-84
2021/12/30 01:28:58;;;;;;;12.80;4.85;;;;;;;12.93;74.00;99861.78;5077358;28;20470;-85
2021/12/30 01:31:26;;;;;;;14.98;5.18;;;;;;;12.98;74.11;99854.00;5080204;28;20059;-85
2021/12/30 01:33:54;;;;;;;16.08;5.65;;;;;;;12.98;74.11;99865.19;5081615;28;20048;-83
2021/12/30 01:36:25;;;;;;;20.30;5.23;;;;;;;12.84;74.91;99869.44;5081757;28;20048;-83
2021/12/30 01:38:53;;;;;;;17.88;5.13;;;;;;;12.89;74.81;99881.22;5082106;28;20405;-83
2021/12/30 01:41:21;;;;;;;15.93;5.03;;;;;;;12.97;74.41;99882.28;5081104;28;20071;-83
2021/12/30 01:43:56;;;;;;;15.30;4.55;;;;;;;12.90;75.03;99882.03;5081631;28;20048;-84
2021/12/30 01:46:38;;;;;;;13.27;4.28;;;;;;;12.80;74.87;99889.69;5081495;28;20405;-84
2021/12/30 01:49:05;;;;;;;20.42;6.20;;;;;;;12.94;74.95;99883.78;5083942;28;20048;-84
2021/12/30 01:51:32;;;;;;;19.67;5.47;;;;;;;12.91;74.76;99892.84;5081038;28;20059;-84
2021/12/30 01:54:03;;;;;;;15.95;4.95;;;;;;;12.80;75.59;99906.44;5082219;28;20393;-83
2021/12/30 01:56:30;;;;;;;15.23;4.03;;;;;;;12.89;75.32;99900.81;5081738;28;20412;-83
2021/12/30 01:58:58;;;;;;;16.92;5.40;;;;;;;12.95;75.10;99907.78;5082526;28;20501;-85
2021/12/30 02:01:30;;;;;;;19.33;5.18;;;;;;;12.74;75.70;99912.59;5082688;28;20048;-84
2021/12/30 02:03:58;;;;;;;15.77;5.35;;;;;;;12.96;75.15;99920.63;5080558;28;20059;-84
2021/12/30 02:06:28;;;;;;;19.27;4.47;;;;;;;13.00;74.85;99913.16;5083454;28;20052;-84
2021/12/30 02:08:55;;;;;;;18.02;4.97;;;;;;;12.91;75.71;99906.03;5081327;28;20063;-85
2021/12/30 02:11:24;;;;;;;13.60;5.05;;;;;;;12.98;75.26;99915.50;5082884;28;20397;-82
2021/12/30 02:13:57;;;;;;;15.82;5.07;;;;;;;13.04;75.07;99912.47;5085120;28;20048;-85
2021/12/30 02:16:26;;;;;;;17.45;4.72;;;;;;;13.13;74.75;99922.41;5080840;28;20056;-84
2021/12/30 02:18:54;;;;;;;19.73;5.95;;;;;;;13.23;74.47;99911.94;5080686;28;20080;-84
2021/12/30 02:21:23;;;;;;;14.90;5.00;;;;;;;13.25;74.57;99902.06;5080385;28;20055;-84
2021/12/30 02:23:50;;;;;;;13.68;5.15;;;;;;;13.28;74.46;99900.53;5080980;28;20056;-83
2021/12/30 02:26:19;;;;;;;18.80;6.00;;;;;;;13.23;74.76;99909.97;5081126;28;20052;-83
2021/12/30 02:28:47;;;;;;;16.77;5.78;;;;;;;13.10;75.46;99902.69;5079907;28;20075;-83
2021/12/30 02:31:17;;;;;;;23.05;5.95;;;;;;;13.04;76.24;99898.50;5080609;28;20053;-84
2021/12/30 02:33:46;;;;;;;15.40;5.15;;;;;;;12.99;76.40;99903.13;5081340;28;20060;-84
2021/12/30 02:36:14;;;;;;;18.20;5.95;;;;;;;13.11;75.92;99898.75;5081669;28;20051;-83
2021/12/30 02:38:45;;;;;;;15.20;5.32;;;;;;;13.22;75.72;99905.53;5081048;28;20059;-84
2021/12/30 02:41:16;;;;;;;20.98;6.25;;;;;;;13.27;75.94;99896.09;5080029;28;20053;-83
2021/12/30 02:43:47;;;;;;;16.98;5.35;;;;;;;13.30;75.71;99915.84;5080869;28;20052;-84
2021/12/30 02:46:16;;;;;;;17.67;5.82;;;;;;;13.29;75.90;99922.63;5081003;28;20052;-83
2021/12/30 02:48:43;;;;;;;21.23;6.32;;;;;;;13.36;75.58;99908.88;5080753;28;20068;-84
2021/12/30 02:51:12;;;;;;;17.98;5.50;;;;;;;13.38;75.96;99925.31;5081059;28;20048;-84
2021/12/30 02:53:44;;;;;;;17.13;5.93;;;;;;;13.45;75.89;99925.53;5081104;28;20071;-84
2021/12/30 02:56:11;;;;;;;13.95;5.55;;;;;;;13.55;75.17;99913.09;5098345;28;20488;-83
2021/12/30 02:58:39;;;;;;;13.85;5.10;;;;;;;13.54;75.33;99917.03;5102420;28;20059;-83
2021/12/30 03:01:15;;;;;;;17.05;5.20;;;;;;;13.53;75.31;99899.44;5092871;28;20049;-83
2021/12/30 03:03:43;;;;;;;16.27;5.40;;;;;;;13.56;75.55;99909.91;5080284;28;20059;-82
2021/12/30 03:06:13;;;;;;;11.77;5.20;;;;;;;13.53;75.46;99915.41;5080420;28;20056;-83
2021/12/30 03:08:42;;;;;;;14.82;5.18;;;;;;;13.57;75.38;99917.16;5080450;28;20045;-83
2021/12/30 03:11:11;;;;;;;18.02;5.78;;;;;;;13.57;75.47;99933.16;5079802;28;20040;-84
2021/12/30 03:13:42;;;;;;;16.60;5.50;;;;;;;13.59;75.80;99922.41;5080558;28;20049;-84
2021/12/30 03:16:13;;;;;;;12.73;5.18;;;;;;;13.56;75.91;99904.31;5080615;28;20504;-85
2021/12/30 03:18:42;;;;;;;20.00;5.80;;;;;;;13.60;75.55;99905.25;5079873;28;20055;-84
2021/12/30 03:21:11;;;;;;;15.88;5.35;;;;;;;13.63;75.74;99912.16;5080445;28;20063;-84
2021/12/30 03:23:38;;;;;;;21.08;5.65;;;;;;;13.58;76.09;99923.56;5081066;28;20048;-84
2021/12/30 03:26:08;;;;;;;17.70;5.63;;;;;;;13.64;75.89;99929.75;5080645;28;20056;-83
2021/12/30 03:28:40;;;;;;;15.07;5.28;;;;;;;13.67;75.85;99926.25;5079863;28;20064;-83
2021/12/30 03:31:08;;;;;;;17.35;6.18;;;;;;;13.67;76.19;99915.91;5080666;28;20048;-83
2021/12/30 03:33:36;;;;;;;17.73;5.72;;;;;;;13.65;76.67;99925.78;5080322;28;20052;-81
2021/12/30 03:36:08;;;;;;;20.83;7.22;;;;;;;13.54;77.44;99928.22;5080064;28;20048;-83
2021/12/30 03:38:43;;;;;;;15.50;7.15;;;;;;;13.48;78.54;99935.22;5079019;28;20501;-82
2021/12/30 03:41:12;;;;;;;18.67;6.70;;;;;;;13.47;79.05;99939.19;5078510;28;20496;-82
2021/12/30 03:43:41;;;;;;;20.35;6.72;;;;;;;13.44;79.53;99937.91;5079196;28;20418;-83
2021/12/30 03:46:10;;;;;;;17.20;7.43;;;;;;;13.37;80.53;99941.25;5079292;28;20048;-82
2021/12/30 03:48:42;;;;;;;18.20;7.60;;;;;;;13.23;81.49;99939.91;5078752;28;20417;-83
2021/12/30 03:51:14;;;;;;;15.13;6.82;;;;;;;13.21;82.02;99954.25;5078405;28;21002;-83
2021/12/30 03:53:45;;;;;;;12.63;6.10;;;;;;;13.23;82.17;99954.72;5076911;28;20075;-83
2021/12/30 03:56:14;;;;;;;12.18;6.32;;;;;;;13.19;82.49;99940.59;5095714;28;20531;-83
2021/12/30 03:58:49;;;;;;;12.98;5.93;;;;;;;13.09;83.50;99937.44;5099143;28;20052;-83
2021/12/30 04:01:22;;;;;;;11.45;6.22;;;;;;;13.09;83.56;99941.03;5092057;28;20056;-83
2021/12/30 04:03:51;;;;;;;11.35;6.25;;;;;;;13.07;83.74;99937.78;5078605;28;20048;-83
2021/12/30 04:06:18;;;;;;;13.00;6.23;;;;;;;13.12;83.73;99950.72;5079136;28;20063;-83
2021/12/30 04:08:46;;;;;;;10.25;6.00;;;;;;;13.14;83.80;99956.78;5077700;28;20048;-83
2021/12/30 04:11:17;;;;;;;14.65;6.13;;;;;;;13.13;83.95;99953.16;5077998;28;20055;-82
2021/12/30 04:13:46;;;;;;;12.80;6.22;;;;;;;13.22;83.45;99958.66;5078771;28;20140;-83
2021/12/30 04:16:14;;;;;;;10.93;6.47;;;;;;;13.24;83.51;99961.94;5079324;28;20060;-83
2021/12/30 04:18:41;;;;;;;12.45;6.53;;;;;;;13.28;83.47;99967.66;5078053;28;20052;-83
2021/12/30 04:21:09;;;;;;;13.43;6.18;;;;;;;13.32;83.35;99963.84;5077615;28;20056;-83
2021/12/30 04:23:36;;;;;;;13.05;6.25;;;;;;;13.37;82.85;99966.44;5077571;28;20048;-83
2021/12/30 04:26:04;;;;;;;14.20;6.43;;;;;;;13.33;83.33;99957.13;5077720;28;20048;-83
2021/12/30 04:28:34;;;;;;;11.77;6.00;;;;;;;13.34;83.48;99955.94;5076902;28;20060;-83
2021/12/30 04:31:06;;;;;;;13.18;6.70;;;;;;;13.45;83.02;99952.72;5078310;28;20056;-83
2021/12/30 04:33:33;;;;;;;10.50;6.68;;;;;;;13.42;83.02;99950.59;5083381;28;20044;-83
2021/12/30 04:36:01;;;;;;;10.82;6.40;;;;;;;13.44;83.22;99949.09;5078046;28;20408;-83
2021/12/30 04:38:30;;;;;;;13.02;6.18;;;;;;;13.42;83.68;99953.38;5078578;28;20075;-83
2021/12/30 04:40:59;;;;;;;11.85;6.63;;;;;;;13.40;83.62;99959.34;5077626;28;20052;-82
2021/12/30 04:43:27;;;;;;;;;;;;;;;13.41;83.97;99963.75;5079103;28;20182;-82
2021/12/30 04:45:55;;;;;;;12.20;7.15;;;;;;;13.44;84.83;99960.28;5077209;28;19920;-81
2021/12/30 04:48:24;;;;;;;10.38;6.57;;;;;;;13.50;84.46;99958.06;5078070;28;20067;-82
2021/12/30 04:50:51;;;;;;;9.43;6.13;;;;;;;13.51;84.51;99951.31;5077262;28;20059;-82
2021/12/30 04:53:19;;;;;;;9.95;6.43;;;;;;;13.46;85.02;99948.72;5078785;28;20407;-82
2021/12/30 04:55:48;;;;;;;8.55;5.38;;;;;;;13.51;85.16;99956.91;5092275;28;20491;-83
2021/12/30 04:58:16;;;;;;;8.80;5.63;;;;;;;13.55;85.00;99955.88;5097607;28;20048;-84
2021/12/30 05:00:44;;;;;;;8.75;5.78;;;;;;;13.52;85.54;99952.94;5061633;28;20048;-84
2021/12/30 05:03:13;;;;;;;10.52;5.35;;;;;;;13.67;85.06;99957.88;5077706;28;20052;-84
2021/12/30 05:05:44;;;;;;;10.35;6.18;;;;;;;13.77;84.99;99951.84;5076950;28;20058;-83
2021/12/30 05:08:11;;;;;;;9.55;5.88;;;;;;;13.76;85.20;99949.38;5077458;28;20048;-83
2021/12/30 05:10:39;;;;;;;8.07;5.78;;;;;;;13.83;84.45;99957.19;5077587;28;20048;-84
2021/12/30 05:13:08;;;;;;;6.78;4.65;;;;;;;13.79;85.11;99968.25;5077595;28;20052;-85
2021/12/30 05:15:37;;;;;;;7.65;4.38;;;;;;;13.81;84.80;99972.34;5077090;28;20392;-82
2021/12/30 05:18:05;;;;;;;7.72;4.13;;;;;;;13.79;84.88;99969.06;5077479;28;20048;-81
2021/12/30 05:20:37;;;;;;;7.10;3.43;;;;;;;13.75;84.74;99970.13;5077233;28;20056;-81
2021/12/30 05:23:07;;;;;;;5.32;3.00;;;;;;;13.82;84.10;99975.97;5076727;28;20465;-82
2021/12/30 05:25:35;;;;;;;5.47;3.00;;;;;;;13.73;84.95;99966.84;5077585;28;20052;-82
2021/12/30 05:28:02;;;;;;;5.03;2.75;;;;;;;13.68;85.18;99970.69;5077599;28;20053;-82
2021/12/30 05:30:30;;;;;;;5.13;2.47;;;;;;;13.72;84.61;99957.63;5076140;28;20075;-83
2021/12/30 05:32:58;;;;;;;4.20;2.30;;;;;;;13.69;85.02;99972.34;5076645;28;20067;-83
2021/12/30 05:35:25;;;;;;;3.00;2.00;;;;;;;13.80;84.44;99970.72;5077505;28;20056;-83
2021/12/30 05:37:53;;;;;;;3.40;1.80;;;;;;;13.78;84.71;99972.22;5077702;28;20059;-82
2021/12/30 05:40:23;;;;;;;2.50;1.75;;;;;;;13.85;84.39;99969.66;5076805;28;20068;-83
2021/12/30 05:42:51;;;;;;;2.60;1.60;;;;;;;13.87;84.65;99974.91;5056176;28;20057;-83
2021/12/30 05:45:19;;;;;;;2.55;1.40;;;;;;;13.79;84.89;99973.84;5057422;28;20057;-82
2021/12/30 05:47:49;;;;;;;2.42;1.30;;;;;;;13.84;84.94;99975.59;5056577;28;20059;-83
2021/12/30 05:50:18;;;;;;;;;;;;;;;13.42;90.80;99976.59;5057512;28;20064;-84
2021/12/30 05:52:45;;;;;;;5.47;2.00;;;;;;;13.30;91.33;99971.78;5075756;28;19920;-82
2021/12/30 05:55:13;;;;;;;3.88;1.55;;;;;;;13.38;91.08;99970.88;5086216;28;20401;-82
2021/12/30 05:57:43;;;;;;;2.42;1.10;;;;;;;13.43;90.53;99971.81;5097360;28;20048;-82
2021/12/30 06:00:13;;;;;;;2.78;1.08;;;;;;;13.48;90.09;99966.00;5096404;28;20052;-82
2021/12/30 06:02:41;;;;;;;2.25;1.02;;;;;;;13.53;89.94;99971.38;5075735;28;20059;-83
2021/12/30 06:05:09;;;;;;;2.33;1.00;;;;;;;13.55;89.83;99963.44;5076556;28;20048;-84
2021/12/30 06:07:36;;;;;;;2.22;1.17;;;;;;;13.55;90.05;99963.44;5075396;28;20057;-83
2021/12/30 06:10:05;;;;;;;2.28;1.23;;;;;;;13.57;89.37;99969.53;5076314;28;20064;-83
2021/12/30 06:12:33;;;;;;;2.05;1.10;;;;;;;13.58;89.66;99962.75;5074912;28;20123;-83
2021/12/30 06:15:02;;;;;;;2.22;1.25;;;;;;;13.54;89.24;99965.44;5075862;28;20076;-83
2021/12/30 06:17:29;;;;;;;3.10;1.73;;;;;;;13.60;89.26;99954.81;5078233;28;20481;-82
2021/12/30 06:19:57;;;;;;;1.55;1.00;;;;;;;13.61;88.60;99956.47;5078630;28;20048;-83
2021/12/30 06:22:24;;;;;;;1.98;1.10;;;;;;;13.55;88.59;99967.06;5078512;28;20500;-83
2021/12/30 06:24:51;;;;;;;2.30;0.90;;;;;;;13.54;88.45;99961.81;5079198;28;20486;-82
2021/12/30 06:27:18;;;;;;;1.20;0.68;;;;;;;13.51;88.20;99968.09;5079448;28;20057;-82
2021/12/30 06:29:46;;;;;;;1.63;0.82;;;;;;;13.47;88.46;99965.19;5079553;28;20403;-82
2021/12/30 06:32:14;;;;;;;1.52;0.90;;;;;;;13.30;90.52;99979.38;5078805;28;20049;-83
2021/12/30 06:34:42;;;;;;;1.43;0.80;;;;;;;13.36;89.44;99981.59;5078177;28;20421;-82
2021/12/30 06:37:11;;;;;;;1.85;0.82;;;;;;;13.40;89.11;99979.75;5078352;28;20466;-83
2021/12/30 06:39:39;;;;;;;1.80;1.08;;;;;;;13.50;88.29;99980.44;5079102;28;20053;-82
2021/12/30 06:42:06;;;;;;;2.38;1.00;;;;;;;13.53;88.47;99982.56;5078134;28;20096;-82
2021/12/30 06:44:34;;;;;;;4.35;1.20;;;;;;;13.56;87.97;99987.47;5077359;28;20063;-83
2021/12/30 06:47:03;;;;;;;2.78;1.88;;;;;;;13.50;89.11;99983.25;5079254;28;20051;-83
2021/12/30 06:49:36;;;;;;;3.45;1.35;;;;;;;13.56;88.96;99970.66;5078618;28;20060;-83
2021/12/30 06:52:05;;;;;;;2.97;1.70;;;;;;;13.55;89.18;99971.84;5077698;28;20053;-83
2021/12/30 06:54:33;;;;;;;3.45;1.80;;;;;;;13.65;88.80;99967.75;5082496;28;20044;-83
2021/12/30 06:57:02;;;;;;;3.25;1.77;;;;;;;13.70;88.87;99971.16;5099067;28;20059;-83
2021/12/30 06:59:31;;;;;;;2.85;1.70;;;;;;;13.69;89.37;99977.94;5098714;28;20059;-82
2021/12/30 07:01:59;;;;;;;2.72;1.65;;;;;;;13.80;88.66;99984.72;5083766;28;20060;-83
2021/12/30 07:04:27;;;;;;;3.65;2.50;;;;;;;13.85;88.60;99991.25;5078559;28;20515;-83
2021/12/30 07:06:55;;;;;;;3.50;3.00;;;;;;;13.78;89.24;99991.81;5078833;28;20063;-83
2021/12/30 07:09:23;;;;;;;3.05;2.55;;;;;;;13.87;89.19;99989.72;5078758;28;20382;-82
2021/12/30 07:11:51;;;;;;;3.85;2.60;;;;;;;13.81;89.52;99997.53;5078585;28;20060;-82
2021/12/30 07:14:20;;;;;;;3.25;2.60;;;;;;;13.96;89.04;100000.81;5078641;28;20052;-82
2021/12/30 07:16:47;;;;;;;3.92;2.85;;;;;;;13.95;89.28;99982.41;5079321;28;20059;-82
2021/12/30 07:19:15;;;;;;;3.05;2.58;;;;;;;14.06;89.11;99988.34;5078351;28;20071;-83
2021/12/30 07:21:44;;;;;;;4.13;2.90;;;;;;;13.95;89.47;99996.38;5079577;28;20044;-83
2021/12/30 07:24:13;;;;;;;4.30;2.85;;;;;;;14.05;89.35;99995.09;5078317;28;20470;-83
2021/12/30 07:26:40;;;;;;;3.35;2.70;;;;;;;14.05;89.25;99995.94;5078938;28;20052;-83
2021/12/30 07:29:07;;;;;;;3.45;2.70;;;;;;;14.17;88.96;99995.09;5077042;28;20052;-82
2021/12/30 07:31:35;;;;;;;3.95;2.88;;;;;;;14.25;88.44;100001.75;5077834;28;20067;-84
2021/12/30 07:34:05;;;;;;;3.92;2.90;;;;;;;14.12;88.62;100004.56;5078269;28;20060;-83
2021/12/30 07:36:32;;;;;;;3.80;2.90;;;;;;;14.17;88.49;100011.91;5078992;28;20053;-82
2021/12/30 07:38:59;;;;;;;3.08;2.47;;;;;;;14.20;88.34;100022.44;5079489;28;20055;-84
2021/12/30 07:41:28;;;;;;;3.38;2.45;;;;;;;14.28;87.96;100024.28;5077882;28;20048;-84
2021/12/30 07:43:55;;;;;;;3.58;2.60;;;;;;;14.32;88.19;100033.63;5079257;28;20055;-83
2021/12/30 07:46:23;;;;;;;2.67;2.30;;;;;;;14.46;87.38;100050.06;5079085;28;20365;-83
2021/12/30 07:48:50;;;;;;;4.38;2.42;;;;;;;14.43;87.30;100064.78;5078044;28;20059;-82
2021/12/30 07:51:18;;;;;;;3.72;2.40;;;;;;;14.50;86.73;100047.41;5077900;28;20048;-83
2021/12/30 07:53:45;;;;;;;2.72;2.13;;;;;;;14.51;86.61;100063.88;5077872;28;20064;-84
2021/12/30 07:56:12;;;;;;;2.42;1.83;;;;;;;14.45;86.87;100065.25;5095902;28;20051;-83
2021/12/30 07:58:41;;;;;;;3.20;2.00;;;;;;;14.48;86.94;100066.53;5097433;28;20048;-83
2021/12/30 08:01:09;;;;;;;2.15;1.55;;;;;;;14.52;86.63;100064.69;5089275;28;20057;-83
2021/12/30 08:03:36;;;;;;;3.53;1.85;;;;;;;14.54;85.96;100074.34;5078158;28;20048;-83
2021/12/30 08:06:04;;;;;;;2.63;1.70;;;;;;;14.53;86.29;100078.34;5077851;28;20391;-83
2021/12/30 08:08:31;;;;;;;2.20;1.60;;;;;;;14.57;85.91;100082.13;5077533;28;20049;-83
2021/12/30 08:10:59;;;;;;;2.30;1.70;;;;;;;14.53;86.69;100097.13;5077378;28;20048;-84
2021/12/30 08:13:27;;;;;;;2.53;1.50;;;;;;;14.64;85.99;100094.72;5077017;28;20060;-83
2021/12/30 08:15:56;;;;;;;3.25;1.77;;;;;;;14.56;86.32;100091.66;5076890;28;20063;-83
2021/12/30 08:18:23;;;;;;;3.00;1.80;;;;;;;14.51;86.01;100100.31;5077101;28;20048;-83
2021/12/30 08:20:52;;;;;;;2.08;1.10;;;;;;;14.60;86.04;100108.63;5076569;28;20048;-83
2021/12/30 08:23:19;;;;;;;2.20;1.35;;;;;;;14.57;85.89;100098.09;5077614;28;20059;-82
2021/12/30 08:25:51;;;;;;;2.55;1.52;;;;;;;14.64;85.79;100101.16;5076764;28;20063;-83
2021/12/30 08:28:19;;;;;;;2.17;1.30;;;;;;;14.71;85.65;100097.75;5076977;28;20057;-83
2021/12/30 08:30:46;;;;;;;1.70;1.23;;;;;;;14.73;85.57;100099.03;5077099;28;20053;-83
2021/12/30 08:33:15;;;;;;;2.30;1.50;;;;;;;14.74;85.56;100094.22;5077395;28;20059;-83
2021/12/30 08:35:42;;;;;;;3.00;1.38;;;;;;;14.65;86.08;100104.75;5077073;28;20059;-83
2021/12/30 08:38:10;;;;;;;2.28;1.20;;;;;;;14.70;85.91;100101.69;5074671;28;20052;-82
2021/12/30 08:40:38;;;;;;;2.60;1.30;;;;;;;14.72;85.58;100104.97;5075417;28;20053;-83
2021/12/30 08:43:06;;;;;;;1.75;1.40;;;;;;;14.70;85.61;100112.91;5076577;28;20524;-81
2021/12/30 08:45:34;;;;;;;3.17;1.70;;;;;;;14.79;85.36;100111.63;5074162;28;20059;-82
2021/12/30 08:48:01;;;;;;;3.20;1.80;;;;;;;14.72;85.67;100122.63;5078402;28;20394;-82
2021/12/30 08:50:30;;;;;;;2.00;1.80;;;;;;;14.69;85.93;100122.50;5076931;28;20495;-82
2021/12/30 08:52:57;;;;;;;3.80;2.00;;;;;;;14.61;86.18;100122.28;5076150;28;20076;-83
2021/12/30 08:55:25;;;;;;;3.67;2.08;;;;;;;14.64;86.26;100123.56;5075576;28;20045;-82
2021/12/30 08:57:53;;;;;;;3.45;2.38;;;;;;;14.73;85.68;100131.84;5076134;28;20044;-82
2021/12/30 09:00:23;;;;;;;2.78;2.20;;;;;;;14.69;85.81;100133.72;5075935;28;20048;-83
2021/12/30 09:02:51;;;;;;;4.22;2.45;;;;;;;14.72;85.69;100139.44;5082012;28;20409;-83
2021/12/30 09:05:19;;;;;;;2.95;2.58;;;;;;;14.66;86.30;100145.63;5075354;28;20049;-83
2021/12/30 09:07:50;;;;;;;5.10;2.60;;;;;;;14.69;86.24;100147.75;5075600;28;20440;-83
2021/12/30 09:10:19;;;;;;;4.53;2.40;;;;;;;14.75;85.76;100149.94;5073712;28;20047;-81
2021/12/30 09:12:48;;;;;;;3.03;1.75;;;;;;;14.83;85.64;100156.63;5074937;28;20052;-82
2021/12/30 09:15:18;;;;;;;2.25;1.95;;;;;;;14.86;85.65;100155.09;5074953;28;20055;-82
2021/12/30 09:17:47;;;;;;;4.13;1.98;;;;;;;14.92;85.17;100154.50;5075723;28;20059;-83
2021/12/30 09:20:15;;;;;;;2.35;1.75;;;;;;;14.88;85.15;100145.16;5075152;28;20393;-82
2021/12/30 09:22:43;;;;;;;2.45;1.60;;;;;;;14.78;85.78;100151.22;5076341;28;20053;-83
2021/12/30 09:25:13;;;;;;;2.47;1.40;;;;;;;14.85;85.31;100145.88;5075393;28;20057;-83
2021/12/30 09:27:42;;;;;;;1.50;1.20;;;;;;;14.81;85.35;100158.97;5074857;28;20056;-83
2021/12/30 09:30:12;;;;;;;2.33;1.42;;;;;;;14.73;85.48;100159.88;5075390;28;20397;-82
2021/12/30 09:32:40;;;;;;;3.60;1.52;;;;;;;14.85;85.26;100171.09;5073663;28;20059;-83
2021/12/30 09:35:10;;;;;;;2.70;1.50;;;;;;;14.79;85.57;100164.91;5075004;28;20060;-83
2021/12/30 09:37:38;;;;;;;2.08;1.50;;;;;;;14.80;85.50;100165.72;5075852;28;20052;-83
2021/12/30 09:40:10;;;;;;;3.05;1.50;;;;;;;14.75;86.07;100175.19;5075402;28;20059;-82
2021/12/30 09:42:40;;;;;;;1.70;1.25;;;;;;;14.84;85.42;100180.66;5075299;28;20060;-82
2021/12/30 09:45:09;;;;;;;1.90;1.30;;;;;;;14.85;85.49;100190.75;5075327;28;20048;-82
2021/12/30 09:47:36;;;;;;;1.50;1.10;;;;;;;14.76;85.58;100187.22;5075893;28;20060;-82
2021/12/30 09:50:05;;;;;;;2.40;1.27;;;;;;;14.92;85.57;100173.31;5076353;28;20048;-83
2021/12/30 09:52:32;;;;;;;2.50;1.10;;;;;;;15.03;84.24;100168.84;5079592;28;20048;-83
2021/12/30 09:55:00;;;;;;;1.55;1.13;;;;;;;15.06;84.25;100161.75;5091888;28;20048;-83
2021/12/30 09:57:27;;;;;;;2.45;1.00;;;;;;;15.25;83.73;100161.94;5100942;28;20055;-84
2021/12/30 09:59:56;;;;;;;1.92;1.38;;;;;;;15.32;83.23;100156.53;5099904;28;20067;-83
2021/12/30 10:02:23;;;;;;;1.93;1.30;;;;;;;15.41;82.80;100165.66;5079282;28;20387;-84
2021/12/30 10:05:04;;;;;;;2.72;1.70;;;;;;;15.36;82.60;100162.28;5080093;28;20052;-83
2021/12/30 10:07:32;;;;;;;2.08;1.60;;;;;;;15.32;82.65;100167.78;5086421;28;20057;-84
2021/12/30 10:10:03;;;;;;;2.33;1.50;;;;;;;15.36;82.50;100170.69;5079461;28;20485;-83
2021/12/30 10:12:35;;;;;;;2.60;1.80;;;;;;;15.40;82.01;100161.19;5079567;28;20056;-83
2021/12/30 10:15:05;;;;;;;2.63;1.80;;;;;;;15.32;81.55;100153.75;5079429;28;20052;-83
2021/12/30 10:17:32;;;;;;;2.22;1.63;;;;;;;15.47;80.84;100162.59;5079981;28;20053;-83
2021/12/30 10:20:16;;;;;;;2.60;1.70;;;;;;;15.29;80.77;100154.47;5078675;28;20045;-83
2021/12/30 10:22:47;;;;;;;2.88;1.83;;;;;;;15.41;80.95;100157.25;5078930;28;20049;-83
2021/12/30 10:25:37;;;;;;;3.17;1.60;;;;;;;15.61;79.59;100151.78;5084575;28;20047;-84
2021/12/30 10:28:22;;;;;;;2.50;1.52;;;;;;;15.91;77.96;100163.50;5073378;28;20055;-83
2021/12/30 10:30:54;;;;;;;2.20;1.98;;;;;;;16.07;77.52;100152.31;5078981;28;20052;-83
2021/12/30 10:33:24;;;;;;;2.20;1.88;;;;;;;16.16;77.16;100152.97;5080476;28;20052;-83
2021/12/30 10:35:52;;;;;;;3.13;2.67;;;;;;;16.51;75.85;100163.53;5079411;28;20053;-84
2021/12/30 10:38:20;;;;;;;4.10;3.00;;;;;;;16.61;74.70;100168.59;5079170;28;20416;-83
2021/12/30 10:40:49;;;;;;;3.92;3.35;;;;;;;16.78;74.46;100175.84;5079189;28;20041;-83
2021/12/30 10:43:27;;;;;;;6.40;3.10;;;;;;;16.53;74.74;100180.03;5079284;28;20087;-83
2021/12/30 10:46:15;;;;;;;4.00;3.60;;;;;;;16.51;74.56;100168.34;5079082;28;20064;-83
2021/12/30 10:48:49;;;;;;;4.00;3.60;;;;;;;16.32;75.08;100175.47;5078396;28;20048;-82
2021/12/30 10:51:18;;;;;;;4.10;3.63;;;;;;;16.07;76.06;100171.97;5078529;28;20052;-83
2021/12/30 10:53:47;;;;;;;3.78;3.47;;;;;;;15.96;75.88;100182.13;5077996;28;20060;-82
2021/12/30 10:56:30;;;;;;;4.45;4.05;;;;;;;15.86;76.23;100191.84;5086677;28;20057;-82
2021/12/30 10:59:20;;;;;;;3.80;3.20;;;;;;;15.99;75.65;100199.06;5077781;28;20056;-82
2021/12/30 11:01:52;;;;;;;3.63;3.33;;;;;;;15.96;75.63;100198.97;5078066;28;20059;-83
2021/12/30 11:04:20;;;;;;;4.00;3.60;;;;;;;15.69;76.50;100195.75;5077875;28;20056;-83
2021/12/30 11:06:48;;;;;;;4.75;3.63;;;;;;;15.63;77.23;100178.34;5078814;28;20079;-82
2021/12/30 11:09:21;;;;;;;3.15;2.88;;;;;;;15.75;76.89;100197.16;5077436;28;20481;-82
2021/12/30 11:11:51;;;;;;;3.58;3.20;;;;;;;15.94;76.48;100185.28;5078444;28;20057;-82
2021/12/30 11:14:21;;;;;;;3.42;2.67;;;;;;;15.96;76.04;100196.16;5078252;28;20057;-82
2021/12/30 11:17:04;;;;;;;3.03;2.72;;;;;;;16.12;75.26;100182.13;5079094;28;20052;-83
2021/12/30 11:19:34;;;;;;;5.72;2.80;;;;;;;16.11;74.54;100188.94;5078626;28;20049;-81
2021/12/30 11:22:11;;;;;;;4.53;3.70;;;;;;;16.22;74.39;100193.66;5076907;28;20052;-82
2021/12/30 11:24:40;;;;;;;4.40;2.50;;;;;;;16.10;74.73;100213.41;5077285;28;20063;-82
2021/12/30 11:27:10;;;;;;;2.92;2.38;;;;;;;16.17;74.34;100205.19;5072983;28;20056;-81
2021/12/30 11:29:41;;;;;;;3.15;2.50;;;;;;;16.01;74.30;100195.88;5078536;28;20509;-82
2021/12/30 11:32:11;;;;;;;3.30;2.28;;;;;;;16.29;73.80;100195.03;5077725;28;20052;-84
2021/12/30 11:34:38;;;;;;;3.42;2.42;;;;;;;16.33;73.10;100208.00;5078065;28;20413;-82
2021/12/30 11:37:07;;;;;;;2.40;2.10;;;;;;;16.23;73.16;100212.19;5076238;28;20055;-84